createdAt,value
2023-02-09T00:01:25.876Z,-3.37
2023-02-09T00:03:53.729Z,-3.55
2023-02-09T00:06:23.055Z,-3.54
2023-02-09T00:08:50.488Z,-3.56
2023-02-09T00:11:48.018Z,-3.81
2023-02-09T00:14:17.623Z,-3.67
2023-02-09T00:16:45.470Z,-3.64
2023-02-09T00:19:13.584Z,-3.56
2023-02-09T00:21:41.476Z,-3.80
2023-02-09T00:24:10.811Z,-3.89
2023-02-09T00:26:38.587Z,-4.00
2023-02-09T00:29:06.435Z,-4.09
2023-02-09T00:31:33.684Z,-4.00
2023-02-09T00:34:01.510Z,-4.13
2023-02-09T00:36:29.274Z,-4.17
2023-02-09T00:38:56.489Z,-4.26
2023-02-09T00:41:43.515Z,-4.15
2023-02-09T00:44:11.956Z,-4.27
2023-02-09T00:46:39.054Z,-4.47
2023-02-09T00:49:06.207Z,-4.55
2023-02-09T00:51:33.444Z,-4.78
2023-02-09T00:54:02.634Z,-4.78
2023-02-09T00:56:29.531Z,-4.93
2023-02-09T00:58:56.423Z,-4.87
2023-02-09T01:01:25.241Z,-5.00
2023-02-09T01:03:53.073Z,-5.00
2023-02-09T01:06:21.059Z,-5.02
2023-02-09T01:08:48.357Z,-5.03
2023-02-09T01:11:16.873Z,-5.21
2023-02-09T01:13:45.176Z,-5.14
2023-02-09T01:16:15.205Z,-5.00
2023-02-09T01:18:43.759Z,-4.83
2023-02-09T01:21:16.725Z,-4.97
2023-02-09T01:23:44.007Z,-5.00
2023-02-09T01:26:12.698Z,-4.92
2023-02-09T01:28:39.901Z,-5.19
2023-02-09T01:31:19.131Z,-5.13
2023-02-09T01:33:46.252Z,-5.20
2023-02-09T01:36:13.199Z,-5.18
2023-02-09T01:38:40.320Z,-5.12
2023-02-09T01:41:09.387Z,-5.12
2023-02-09T01:44:07.880Z,-4.97
2023-02-09T01:46:36.393Z,-4.83
2023-02-09T01:49:03.488Z,-4.86
2023-02-09T01:51:34.517Z,-5.03
2023-02-09T01:54:09.413Z,-5.12
2023-02-09T01:56:39.465Z,-4.95
2023-02-09T01:59:07.998Z,-4.80
2023-02-09T02:01:38.240Z,-4.92
2023-02-09T02:04:06.519Z,-4.99
2023-02-09T02:06:34.158Z,-5.07
2023-02-09T02:09:11.427Z,-5.16
2023-02-09T02:11:40.228Z,-5.20
2023-02-09T02:14:27.339Z,-5.30
2023-02-09T02:17:15.309Z,-5.45
2023-02-09T02:19:54.197Z,-5.65
2023-02-09T02:22:48.908Z,-5.78
2023-02-09T02:25:19.157Z,-5.91
2023-02-09T02:28:05.026Z,-5.89
2023-02-09T02:30:38.005Z,-5.87
2023-02-09T02:33:17.731Z,-5.88
2023-02-09T02:35:50.434Z,-5.89
2023-02-09T02:38:34.573Z,-5.96
2023-02-09T02:41:01.523Z,-6.09
2023-02-09T02:43:49.435Z,-6.13
2023-02-09T02:46:25.756Z,-6.07
2023-02-09T02:49:03.392Z,-6.27
2023-02-09T02:51:53.027Z,-6.21
2023-02-09T02:54:42.579Z,-6.14
2023-02-09T02:57:15.225Z,-6.32
2023-02-09T02:59:51.285Z,-6.35
2023-02-09T03:02:31.739Z,-6.45
2023-02-09T03:05:00.574Z,-6.43
2023-02-09T03:07:27.604Z,-6.31
2023-02-09T03:09:56.685Z,-6.63
2023-02-09T03:12:50.415Z,-6.78
2023-02-09T03:15:43.295Z,-6.62
2023-02-09T03:18:37.952Z,-6.68
2023-02-09T03:21:13.131Z,-6.89
2023-02-09T03:24:03.586Z,-6.82
2023-02-09T03:26:42.638Z,-6.90
2023-02-09T03:29:11.699Z,-6.84
2023-02-09T03:31:39.988Z,-6.82
2023-02-09T03:34:07.535Z,-6.89
2023-02-09T03:36:38.069Z,-7.03
2023-02-09T03:39:05.700Z,-6.90
2023-02-09T03:41:32.673Z,-7.00
2023-02-09T03:44:18.082Z,-7.04
2023-02-09T03:46:45.196Z,-6.97
2023-02-09T03:49:15.061Z,-6.89
2023-02-09T03:51:42.808Z,-6.91
2023-02-09T03:54:09.986Z,-6.97
2023-02-09T03:56:37.571Z,-7.11
2023-02-09T03:59:06.420Z,-7.08
2023-02-09T04:01:36.389Z,-7.01
2023-02-09T04:04:04.621Z,-6.77
2023-02-09T04:06:33.096Z,-6.78
2023-02-09T04:09:00.343Z,-6.73
2023-02-09T04:11:28.526Z,-6.65
2023-02-09T04:13:55.519Z,-6.37
2023-02-09T04:16:22.629Z,-6.28
2023-02-09T04:18:49.554Z,-6.26
2023-02-09T04:21:17.057Z,-5.97
2023-02-09T04:23:44.015Z,-5.83
2023-02-09T04:26:11.079Z,-5.65
2023-02-09T04:28:38.126Z,-5.57
2023-02-09T04:31:05.479Z,-5.77
2023-02-09T04:33:32.671Z,-6.40
2023-02-09T04:35:59.867Z,-6.13
2023-02-09T04:38:26.975Z,-6.14
2023-02-09T04:40:55.466Z,-6.40
2023-02-09T04:43:22.744Z,-6.54
2023-02-09T04:45:49.811Z,-6.26
2023-02-09T04:48:19.515Z,-6.24
2023-02-09T04:50:47.207Z,-6.10
2023-02-09T04:53:14.623Z,-6.12
2023-02-09T04:55:43.223Z,-6.00
2023-02-09T04:58:35.871Z,-5.87
2023-02-09T05:01:03.737Z,-5.77
2023-02-09T05:03:30.977Z,-5.58
2023-02-09T05:06:04.101Z,-5.48
2023-02-09T05:08:31.581Z,-5.88
2023-02-09T05:10:58.805Z,-5.47
2023-02-09T05:13:26.721Z,-5.69
2023-02-09T05:15:54.027Z,-5.56
2023-02-09T05:18:22.091Z,-5.53
2023-02-09T05:20:49.286Z,-5.47
2023-02-09T05:23:16.940Z,-5.24
2023-02-09T05:25:45.816Z,-5.69
2023-02-09T05:28:12.985Z,-5.28
2023-02-09T05:30:40.013Z,-5.04
2023-02-09T05:33:06.972Z,-4.73
2023-02-09T05:35:34.088Z,-4.65
2023-02-09T05:38:01.046Z,-4.32
2023-02-09T05:40:28.011Z,-3.91
2023-02-09T05:42:55.272Z,-3.71
2023-02-09T05:45:23.426Z,-3.33
2023-02-09T05:47:50.372Z,-3.18
2023-02-09T05:50:17.605Z,-3.36
2023-02-09T05:52:45.229Z,-3.65
2023-02-09T05:55:12.243Z,-2.98
2023-02-09T05:57:39.198Z,-3.26
2023-02-09T06:00:06.978Z,-3.60
2023-02-09T06:02:39.052Z,-3.58
2023-02-09T06:05:06.424Z,-3.82
2023-02-09T06:07:33.731Z,-3.13
2023-02-09T06:10:00.669Z,-4.05
2023-02-09T06:12:27.778Z,-4.02
2023-02-09T06:14:54.921Z,-4.34
2023-02-09T06:17:21.794Z,-4.18
2023-02-09T06:19:48.839Z,-4.42
2023-02-09T06:22:15.912Z,-4.23
2023-02-09T06:24:42.763Z,-4.33
2023-02-09T06:27:09.615Z,-4.93
2023-02-09T06:29:37.179Z,-4.83
2023-02-09T06:32:04.281Z,-4.72
2023-02-09T06:34:31.303Z,-4.71
2023-02-09T06:36:58.199Z,-4.79
2023-02-09T06:39:26.045Z,-4.88
2023-02-09T06:41:53.111Z,-4.34
2023-02-09T06:44:20.001Z,-4.34
2023-02-09T06:46:47.439Z,-4.85
2023-02-09T06:49:14.405Z,-4.80
2023-02-09T06:51:41.626Z,-4.50
2023-02-09T06:54:08.754Z,-4.55
2023-02-09T06:56:35.663Z,-4.18
2023-02-09T06:59:02.782Z,-3.56
2023-02-09T07:01:29.748Z,-2.91
2023-02-09T07:03:56.729Z,-1.75
2023-02-09T07:06:24.483Z,-0.70
2023-02-09T07:08:51.400Z,-0.09
2023-02-09T07:11:19.242Z,-1.32
2023-02-09T07:13:46.834Z,-1.20
2023-02-09T07:16:14.438Z,-2.58
2023-02-09T07:18:41.962Z,-2.41
2023-02-09T07:21:11.523Z,-2.86
2023-02-09T07:23:39.266Z,-2.84
2023-02-09T07:26:08.326Z,-2.50
2023-02-09T07:28:36.116Z,-2.14
2023-02-09T07:31:09.467Z,-2.46
2023-02-09T07:33:37.011Z,-1.84
2023-02-09T07:36:05.917Z,-1.99
2023-02-09T07:38:33.974Z,-1.44
2023-02-09T07:41:02.874Z,-0.87
2023-02-09T07:43:30.074Z,-1.05
2023-02-09T07:46:01.352Z,-1.05
2023-02-09T07:48:28.672Z,-0.80
2023-02-09T07:50:55.724Z,-0.41
2023-02-09T07:53:22.687Z,0.88
2023-02-09T07:55:49.707Z,0.36
2023-02-09T07:58:18.426Z,0.62
2023-02-09T08:00:46.524Z,1.68
2023-02-09T08:03:15.888Z,1.82
2023-02-09T08:06:09.081Z,0.87
2023-02-09T08:08:36.158Z,0.53
2023-02-09T08:11:04.563Z,1.58
2023-02-09T08:13:35.917Z,1.15
2023-02-09T08:16:06.128Z,0.35
2023-02-09T08:18:36.729Z,-0.26
2023-02-09T08:21:06.513Z,-0.80
2023-02-09T08:23:35.540Z,-0.28
2023-02-09T08:26:09.180Z,-0.24
2023-02-09T08:28:43.965Z,0.54
2023-02-09T08:31:15.810Z,0.05
2023-02-09T08:33:45.212Z,1.31
2023-02-09T08:36:13.382Z,2.24
2023-02-09T08:38:40.941Z,2.58
2023-02-09T08:41:10.037Z,3.77
2023-02-09T08:43:37.190Z,3.12
2023-02-09T08:46:07.077Z,2.18
2023-02-09T08:48:36.063Z,1.60
2023-02-09T08:51:03.574Z,3.21
2023-02-09T08:53:30.768Z,2.86
2023-02-09T08:55:57.986Z,3.10
2023-02-09T08:58:26.214Z,2.36
2023-02-09T09:00:57.378Z,2.59
2023-02-09T09:03:32.996Z,2.83
2023-02-09T09:06:11.172Z,3.20
2023-02-09T09:08:39.107Z,2.85
2023-02-09T09:11:07.487Z,2.70
2023-02-09T09:13:34.464Z,2.92
2023-02-09T09:16:03.157Z,2.95
2023-02-09T09:18:31.722Z,3.01
2023-02-09T09:20:58.662Z,3.21
2023-02-09T09:23:25.659Z,3.25
2023-02-09T09:25:52.593Z,3.74
2023-02-09T09:28:19.500Z,4.67
2023-02-09T09:30:46.557Z,4.42
2023-02-09T09:33:13.470Z,4.01
2023-02-09T09:35:40.675Z,3.94
2023-02-09T09:38:07.606Z,2.72
2023-02-09T09:40:37.277Z,1.19
2023-02-09T09:43:24.391Z,0.20
2023-02-09T09:45:51.527Z,0.83
2023-02-09T09:48:27.080Z,2.27
2023-02-09T09:50:58.736Z,2.45
2023-02-09T09:53:33.381Z,3.49
2023-02-09T09:56:07.679Z,3.89
2023-02-09T09:58:35.462Z,3.18
2023-02-09T10:01:02.430Z,4.02
2023-02-09T10:03:29.376Z,4.08
2023-02-09T10:06:10.872Z,4.07
2023-02-09T10:08:52.798Z,4.58
2023-02-09T10:11:30.484Z,3.84
2023-02-09T10:13:58.141Z,4.55
2023-02-09T10:16:26.738Z,4.82
2023-02-09T10:18:56.155Z,5.42
2023-02-09T10:21:29.463Z,4.51
2023-02-09T10:24:02.302Z,4.31
2023-02-09T10:26:34.640Z,5.35
2023-02-09T10:29:24.654Z,5.90
2023-02-09T10:31:59.987Z,6.73
2023-02-09T10:34:26.877Z,8.42
2023-02-09T10:37:03.898Z,7.31
2023-02-09T10:39:34.583Z,7.82
2023-02-09T10:42:25.528Z,9.12
2023-02-09T10:44:55.345Z,8.94
2023-02-09T10:47:25.020Z,7.29
2023-02-09T10:50:02.601Z,7.43
2023-02-09T10:52:35.917Z,7.36
2023-02-09T10:55:15.074Z,7.02
2023-02-09T10:57:42.007Z,6.12
2023-02-09T11:00:18.069Z,6.35
2023-02-09T11:03:01.891Z,7.88
2023-02-09T11:05:33.183Z,7.65
2023-02-09T11:08:16.385Z,7.58
2023-02-09T11:11:05.045Z,6.21
2023-02-09T11:13:33.281Z,5.66
2023-02-09T11:16:00.180Z,5.02
2023-02-09T11:18:32.701Z,6.47
2023-02-09T11:21:04.212Z,7.27
2023-02-09T11:23:44.623Z,8.02
2023-02-09T11:26:40.035Z,7.78
2023-02-09T11:29:21.620Z,9.05
2023-02-09T11:32:11.136Z,8.04
2023-02-09T11:35:05.637Z,7.80
2023-02-09T11:37:56.434Z,5.79
2023-02-09T11:40:26.300Z,6.67
2023-02-09T11:43:10.704Z,9.16
2023-02-09T11:45:46.543Z,9.14
2023-02-09T11:48:20.066Z,9.71
2023-02-09T11:50:57.337Z,6.24
2023-02-09T11:53:43.363Z,6.21
2023-02-09T11:56:16.444Z,5.16
2023-02-09T11:58:48.980Z,5.77
2023-02-09T12:01:29.009Z,6.33
2023-02-09T12:04:05.597Z,7.28
2023-02-09T12:06:41.757Z,6.57
2023-02-09T12:09:27.712Z,5.21
2023-02-09T12:11:57.250Z,4.19
2023-02-09T12:14:43.188Z,4.74
2023-02-09T12:17:28.739Z,6.01
2023-02-09T12:20:02.382Z,5.40
2023-02-09T12:22:35.281Z,4.69
2023-02-09T12:25:05.189Z,4.84
2023-02-09T12:27:32.607Z,4.63
2023-02-09T12:29:59.495Z,3.93
2023-02-09T12:32:45.338Z,3.57
2023-02-09T12:35:24.751Z,3.23
2023-02-09T12:38:18.993Z,3.07
2023-02-09T12:41:04.801Z,2.85
2023-02-09T12:43:33.883Z,2.24
2023-02-09T12:46:24.955Z,1.95
2023-02-09T12:49:11.809Z,1.92
2023-02-09T12:51:48.226Z,2.37
2023-02-09T12:54:33.200Z,2.13
2023-02-09T12:57:15.271Z,2.16
2023-02-09T12:59:55.359Z,2.73
2023-02-09T13:02:46.261Z,2.77
2023-02-09T13:05:37.232Z,1.97
2023-02-09T13:08:19.006Z,2.52
2023-02-09T13:11:19.191Z,2.67
2023-02-09T13:14:00.402Z,2.83
2023-02-09T13:16:51.221Z,2.65
2023-02-09T13:19:47.356Z,2.95
2023-02-09T13:22:37.857Z,2.27
2023-02-09T13:25:19.076Z,2.49
2023-02-09T13:27:49.426Z,2.68
2023-02-09T13:30:26.708Z,2.49
2023-02-09T13:33:24.325Z,1.99
2023-02-09T13:35:51.159Z,1.74
2023-02-09T13:38:21.633Z,1.99
2023-02-09T13:40:50.781Z,2.08
2023-02-09T13:43:31.515Z,1.47
2023-02-09T13:46:00.263Z,1.15
2023-02-09T13:48:39.400Z,0.97
2023-02-09T13:51:18.993Z,1.27
2023-02-09T13:53:57.062Z,1.33
2023-02-09T13:56:24.087Z,1.15
2023-02-09T13:58:51.411Z,1.26
2023-02-09T14:01:33.061Z,0.76
2023-02-09T14:04:25.530Z,0.52
2023-02-09T14:06:58.500Z,0.32
2023-02-09T14:09:31.938Z,0.26
2023-02-09T14:12:03.926Z,0.37
2023-02-09T14:14:59.549Z,0.14
2023-02-09T14:17:32.317Z,-0.01
2023-02-09T14:20:00.374Z,-0.05
2023-02-09T14:22:38.915Z,-0.21
2023-02-09T14:25:21.584Z,0.05
2023-02-09T14:27:50.034Z,-0.06
2023-02-09T14:30:24.654Z,-0.04
2023-02-09T14:32:54.442Z,-0.17
2023-02-09T14:35:41.630Z,-0.19
2023-02-09T14:38:42.769Z,-0.16
2023-02-09T14:41:30.402Z,-0.17
2023-02-09T14:44:06.034Z,-0.19
2023-02-09T14:46:52.104Z,-0.02
2023-02-09T14:49:20.054Z,-0.05
2023-02-09T14:51:48.287Z,0.48
2023-02-09T14:54:22.097Z,0.51
2023-02-09T14:56:49.100Z,0.26
2023-02-09T14:59:17.893Z,-0.11
2023-02-09T15:01:46.291Z,-0.06
2023-02-09T15:04:13.319Z,-0.27
2023-02-09T15:06:42.965Z,-0.20
2023-02-09T15:09:22.788Z,-0.39
2023-02-09T15:12:04.792Z,-0.38
2023-02-09T15:14:42.714Z,0.08
2023-02-09T15:17:21.540Z,0.09
2023-02-09T15:19:48.579Z,-0.03
2023-02-09T15:22:16.649Z,-0.31
2023-02-09T15:24:45.644Z,-0.30
2023-02-09T15:27:28.773Z,-0.57
2023-02-09T15:29:59.399Z,-0.29
2023-02-09T15:32:28.208Z,-0.43
2023-02-09T15:34:55.158Z,-0.48
2023-02-09T15:37:33.258Z,-0.65
2023-02-09T15:40:43.190Z,-0.71
2023-02-09T15:43:30.323Z,-0.61
2023-02-09T15:46:15.914Z,-0.66
2023-02-09T15:48:43.409Z,-0.68
2023-02-09T15:51:10.789Z,-0.62
2023-02-09T15:53:38.361Z,-0.69
2023-02-09T15:56:07.523Z,-0.78
2023-02-09T15:58:37.713Z,-0.90
2023-02-09T16:01:05.463Z,-1.04
2023-02-09T16:03:32.930Z,-0.98
2023-02-09T16:06:07.506Z,-1.04
2023-02-09T16:08:35.607Z,-0.94
2023-02-09T16:11:03.052Z,-0.98
2023-02-09T16:13:29.971Z,-0.99
2023-02-09T16:16:05.129Z,-1.17
2023-02-09T16:18:38.157Z,-1.17
2023-02-09T16:21:06.649Z,-1.14
2023-02-09T16:23:35.025Z,-1.12
2023-02-09T16:26:05.256Z,-1.13
2023-02-09T16:28:32.311Z,-1.44
2023-02-09T16:30:59.422Z,-0.98
2023-02-09T16:33:26.729Z,-0.73
2023-02-09T16:35:57.663Z,-1.03
2023-02-09T16:38:26.409Z,-1.63
2023-02-09T16:40:54.700Z,-1.44
2023-02-09T16:43:23.208Z,-1.41
2023-02-09T16:46:02.679Z,-1.52
2023-02-09T16:48:32.315Z,-1.75
2023-02-09T16:50:59.513Z,-1.78
2023-02-09T16:53:36.887Z,-1.67
2023-02-09T16:56:10.053Z,-1.79
2023-02-09T16:58:38.325Z,-2.07
2023-02-09T17:01:13.241Z,-2.22
2023-02-09T17:03:43.880Z,-2.00
2023-02-09T17:06:17.251Z,-1.98
2023-02-09T17:08:44.514Z,-1.86
2023-02-09T17:11:17.662Z,-1.91
2023-02-09T17:13:45.009Z,-1.90
2023-02-09T17:16:19.930Z,-1.79
2023-02-09T17:18:49.410Z,-2.00
2023-02-09T17:21:38.768Z,-1.85
2023-02-09T17:24:12.918Z,-1.99
2023-02-09T17:26:41.068Z,-1.74
2023-02-09T17:29:08.794Z,-1.80
2023-02-09T17:31:52.022Z,-1.82
2023-02-09T17:34:20.696Z,-1.94
2023-02-09T17:36:47.638Z,-1.92
2023-02-09T17:39:16.862Z,-2.06
2023-02-09T17:41:46.536Z,-2.32
2023-02-09T17:44:26.361Z,-2.16
2023-02-09T17:46:58.974Z,-2.03
2023-02-09T17:49:25.970Z,-2.25
2023-02-09T17:51:53.234Z,-2.15
2023-02-09T17:54:22.498Z,-2.22
2023-02-09T17:56:49.451Z,-2.29
2023-02-09T17:59:19.904Z,-2.40
2023-02-09T18:01:50.357Z,-2.45
2023-02-09T18:04:20.426Z,-2.56
2023-02-09T18:06:47.864Z,-2.52
2023-02-09T18:09:15.269Z,-2.29
2023-02-09T18:11:44.926Z,-2.52
2023-02-09T18:14:17.048Z,-2.43
2023-02-09T18:16:44.290Z,-2.50
2023-02-09T18:19:12.067Z,-2.41
2023-02-09T18:21:46.633Z,-2.41
2023-02-09T18:24:14.198Z,-2.53
2023-02-09T18:26:41.215Z,-2.52
2023-02-09T18:29:08.794Z,-2.45
2023-02-09T18:31:37.408Z,-2.65
2023-02-09T18:34:04.684Z,-2.38
2023-02-09T18:36:33.220Z,-2.42
2023-02-09T18:39:00.350Z,-2.62
2023-02-09T18:41:27.878Z,-2.60
2023-02-09T18:43:56.120Z,-2.61
2023-02-09T18:46:27.291Z,-2.60
2023-02-09T18:48:54.858Z,-2.74
2023-02-09T18:51:22.599Z,-2.61
2023-02-09T18:53:51.323Z,-2.53
2023-02-09T18:56:20.843Z,-2.32
2023-02-09T18:58:51.236Z,-2.52
2023-02-09T19:01:23.003Z,-1.97
2023-02-09T19:03:51.452Z,-2.06
2023-02-09T19:06:20.565Z,-1.97
2023-02-09T19:08:50.316Z,-1.70
2023-02-09T19:11:20.144Z,-1.70
2023-02-09T19:14:07.816Z,-1.60
2023-02-09T19:16:36.828Z,-1.93
2023-02-09T19:19:04.616Z,-2.51
2023-02-09T19:21:32.356Z,-2.45
2023-02-09T19:23:59.354Z,-2.64
2023-02-09T19:26:26.242Z,-2.64
2023-02-09T19:28:53.184Z,-2.40
2023-02-09T19:31:20.078Z,-2.43
2023-02-09T19:33:47.041Z,-2.21
2023-02-09T19:36:14.086Z,-2.11
2023-02-09T19:38:41.078Z,-1.86
2023-02-09T19:41:12.401Z,-1.69
2023-02-09T19:43:42.293Z,-1.70
2023-02-09T19:46:10.385Z,-1.27
2023-02-09T19:48:40.204Z,-0.69
2023-02-09T19:51:08.281Z,-0.82
2023-02-09T19:53:36.099Z,-1.52
2023-02-09T19:56:03.327Z,-1.71
2023-02-09T19:58:31.132Z,-1.88
2023-02-09T20:00:58.189Z,-2.94
2023-02-09T20:03:25.392Z,-2.91
2023-02-09T20:05:52.352Z,-3.13
2023-02-09T20:08:20.322Z,-2.58
2023-02-09T20:10:47.966Z,-2.26
2023-02-09T20:13:15.695Z,-2.23
2023-02-09T20:15:44.292Z,-2.23
2023-02-09T20:18:13.378Z,-2.53
2023-02-09T20:20:43.569Z,-2.46
2023-02-09T20:23:10.936Z,-2.80
2023-02-09T20:25:40.858Z,-3.00
2023-02-09T20:28:08.319Z,-2.86
2023-02-09T20:30:35.546Z,-3.31
2023-02-09T20:33:02.524Z,-3.82
2023-02-09T20:35:29.449Z,-3.56
2023-02-09T20:37:56.425Z,-3.79
2023-02-09T20:40:23.949Z,-3.49
2023-02-09T20:43:09.572Z,-3.88
2023-02-09T20:45:55.387Z,-4.07
2023-02-09T20:48:22.305Z,-4.05
2023-02-09T20:50:49.357Z,-4.03
2023-02-09T20:53:16.565Z,-4.21
2023-02-09T20:55:44.654Z,-4.33
2023-02-09T20:58:13.699Z,-4.44
2023-02-09T21:00:43.653Z,-4.56
2023-02-09T21:03:11.694Z,-4.66
2023-02-09T21:05:38.592Z,-4.83
2023-02-09T21:08:07.006Z,-4.83
2023-02-09T21:10:35.671Z,-4.95
2023-02-09T21:13:04.208Z,-5.00
2023-02-09T21:15:31.384Z,-5.02
2023-02-09T21:17:58.554Z,-5.05
2023-02-09T21:20:25.523Z,-5.01
2023-02-09T21:22:52.634Z,-5.01
2023-02-09T21:25:19.826Z,-5.03
2023-02-09T21:27:46.713Z,-4.92
2023-02-09T21:30:13.876Z,-4.72
2023-02-09T21:32:40.745Z,-4.62
2023-02-09T21:35:10.395Z,-4.61
2023-02-09T21:37:39.058Z,-4.52
2023-02-09T21:40:07.167Z,-4.23
2023-02-09T21:42:35.756Z,-4.12
2023-02-09T21:45:03.340Z,-4.55
2023-02-09T21:47:32.955Z,-4.57
2023-02-09T21:50:00.417Z,-3.82
2023-02-09T21:52:28.129Z,-3.64
2023-02-09T21:54:55.215Z,-4.02
2023-02-09T21:57:22.842Z,-3.82
2023-02-09T21:59:49.883Z,-3.80
2023-02-09T22:02:18.429Z,-4.16
2023-02-09T22:04:46.916Z,-4.31
2023-02-09T22:07:14.926Z,-4.30
2023-02-09T22:09:41.909Z,-4.28
2023-02-09T22:12:08.931Z,-4.44
2023-02-09T22:14:36.125Z,-4.58
2023-02-09T22:17:03.407Z,-4.55
2023-02-09T22:19:30.526Z,-4.47
2023-02-09T22:21:58.222Z,-4.57
2023-02-09T22:24:25.427Z,-4.61
2023-02-09T22:26:52.530Z,-4.16
2023-02-09T22:29:19.810Z,-4.20
2023-02-09T22:31:47.238Z,-4.44
2023-02-09T22:34:14.167Z,-4.73
2023-02-09T22:36:41.070Z,-4.77
2023-02-09T22:39:08.202Z,-5.20
2023-02-09T22:41:35.493Z,-5.22
2023-02-09T22:44:08.359Z,-4.99
2023-02-09T22:46:37.873Z,-4.89
2023-02-09T22:49:06.955Z,-5.14
2023-02-09T22:51:35.634Z,-5.32
2023-02-09T22:54:03.715Z,-5.34
2023-02-09T22:56:31.264Z,-5.41
2023-02-09T22:58:59.850Z,-5.37
2023-02-09T23:01:28.126Z,-5.55
2023-02-09T23:03:55.406Z,-5.63
2023-02-09T23:06:27.071Z,-5.57
2023-02-09T23:08:59.021Z,-5.83
2023-02-09T23:11:26.752Z,-5.69
2023-02-09T23:14:08.589Z,-5.62
2023-02-09T23:16:38.293Z,-5.78
2023-02-09T23:19:08.354Z,-5.58
2023-02-09T23:21:40.414Z,-5.64
2023-02-09T23:24:08.734Z,-5.60
2023-02-09T23:26:36.780Z,-5.59
2023-02-09T23:29:06.528Z,-5.45
2023-02-09T23:31:34.194Z,-5.36
2023-02-09T23:34:01.367Z,-5.60
2023-02-09T23:36:31.211Z,-5.74
2023-02-09T23:39:04.843Z,-5.46
2023-02-09T23:41:32.030Z,-5.61
2023-02-09T23:43:59.832Z,-5.45
2023-02-09T23:46:29.120Z,-5.41
2023-02-09T23:48:56.805Z,-5.20
2023-02-09T23:51:33.123Z,-5.22
2023-02-09T23:54:02.220Z,-5.05
2023-02-09T23:56:31.945Z,-5.29
2023-02-09T23:58:58.916Z,-5.53
